首页
METAR-TAF:

METAR-TAF

机场 :

利沃夫, 乌克兰

纬度: 49-49N, 经度: 023-57E, 海拔: 319米

当前天气观测

该预报发布于22分钟前的21:30 UTC
静风
温度 3°C
湿度 81%
气压 1017 hPa
能见度10公里或以上
1500米以下无云,无积雨云

METAR: UKLL 172130Z 00000MPS CAVOK 03/M00 Q1017 R31/D NOSIG

时间: 23:52 (21:52 UTC)

预报

该预报发布于4小时和50分钟前的17:02 UTC
预报有效从17日的 18点(UTC)到 18日的 18点(UTC)
风速10节,风向西转西南
能見度: 4000
多云层高于1000英尺
轻雾
短暂存在
从 17日的 21点(UTC)到 18日的 02点(UTC)
能見度: 2100
多云层高于700英尺
多云层高于2000英尺, 积雨云.
小阵雨
成为
从 18日的 02点(UTC)到 18日的 03点(UTC)
风速10节,风向西,有时为19节阵风
短暂存在
从 18日的 03点(UTC)到 18日的 09点(UTC)
能見度: 1100
多云层高于400英尺
多云层高于1600英尺, 积雨云.
阵雨
短暂存在
从 18日的 09点(UTC)到 18日的 18点(UTC)
能見度: 2100
多云层高于700英尺
多云层高于1800英尺, 积雨云.
小阵雨

TAF: UKLL 171702Z 1718/1818 24005MPS 4000 BR BKN010 TX08/1812Z TN03/1803Z TEMPO 1721/1802 2100 -SHRA BKN007 BKN020CB BECMG 1802/1803 27005G10MPS TEMPO 1803/1809 1100 SHRA BKN004 BKN016CB TEMPO 1809/1818 2100 -SHRA BKN007 BKN018CB

超过4000个机场的气象观测和天气预报(METAR&TAF报告)。

可查询的气象台以黄色和红色小点在地图上表示。

将鼠标移到小点上方,可查看气象台名称。

然后点击查看天气观测和预报。

如需切换地图:点击带黑十字的绿色按钮放大地图;点击带横线的绿色按钮缩小地图;或者点击绿色箭头查看邻近地区的地图。


METAR-TAF: